Time;durP1;ratioP1;P1;durP2;ratioP2;P2;SDS_P1;SDS_P2;PMS_P1;PMS_P2;Temp;Humidity;BMP_temperature;BMP_pressure;BME280_temperature;BME280_humidity;BME280_pressure;Samples;Min_cycle;Max_cycle;Signal;HPM_P1;HPM_P2
2023/11/24 00:02:21;;;;;;;3.22;1.63;;;6.30;99.90;;;;;;5015074;28;20037;-56
2023/11/24 00:04:47;;;;;;;11.82;1.50;;;6.10;99.90;;;;;;5013755;28;20095;-53
2023/11/24 00:07:13;;;;;;;6.53;1.35;;;6.00;99.90;;;;;;5013791;28;20435;-56
2023/11/24 00:09:39;;;;;;;4.65;1.13;;;5.80;99.90;;;;;;5016998;28;20021;-53
2023/11/24 00:12:05;;;;;;;4.45;1.17;;;5.70;99.90;;;;;;5018698;28;20126;-52
2023/11/24 00:14:30;;;;;;;7.72;1.38;;;5.60;99.90;;;;;;5014484;28;20059;-56
2023/11/24 00:16:57;;;;;;;4.22;1.52;;;5.50;99.90;;;;;;5016487;28;20026;-56
2023/11/24 00:19:23;;;;;;;11.13;1.40;;;5.40;99.90;;;;;;5022354;28;20060;-53
2023/11/24 00:21:49;;;;;;;10.60;1.38;;;5.30;99.90;;;;;;5018067;28;20013;-53
2023/11/24 00:24:15;;;;;;;4.80;1.08;;;5.30;99.90;;;;;;5013004;28;20021;-56
2023/11/24 00:26:41;;;;;;;6.60;1.30;;;5.20;99.90;;;;;;5016892;28;20481;-56
2023/11/24 00:29:07;;;;;;;10.00;1.58;;;5.20;99.90;;;;;;5015907;28;20033;-55
2023/11/24 00:31:32;;;;;;;3.53;1.05;;;5.10;99.90;;;;;;5016732;28;20030;-54
2023/11/24 00:33:58;;;;;;;6.72;1.38;;;5.10;99.90;;;;;;5022737;28;20485;-56
2023/11/24 00:36:24;;;;;;;9.07;1.70;;;5.10;99.90;;;;;;5020250;28;20032;-56
2023/11/24 00:38:50;;;;;;;9.55;1.52;;;5.20;99.90;;;;;;5020659;28;20037;-56
2023/11/24 00:41:16;;;;;;;5.10;1.30;;;5.20;99.90;;;;;;5016529;28;20033;-56
2023/11/24 00:43:42;;;;;;;6.75;1.90;;;5.20;99.90;;;;;;5026103;28;20040;-55
2023/11/24 00:46:11;;;;;;;12.13;1.70;;;5.20;99.90;;;;;;5022731;28;20029;-54
2023/11/24 00:48:37;;;;;;;12.90;2.10;;;5.30;99.90;;;;;;5022658;28;20025;-55
2023/11/24 00:51:04;;;;;;;6.13;1.88;;;5.30;99.90;;;;;;5024525;28;20436;-54
2023/11/24 00:53:30;;;;;;;10.13;1.83;;;5.30;99.90;;;;;;5021754;28;20013;-56
2023/11/24 00:55:56;;;;;;;12.75;2.10;;;5.30;99.90;;;;;;5027538;28;20874;-53
2023/11/24 00:58:22;;;;;;;16.80;2.00;;;5.30;99.90;;;;;;5022610;28;20160;-56
2023/11/24 01:00:47;;;;;;;16.33;2.13;;;5.30;99.90;;;;;;5022596;28;20439;-54
2023/11/24 01:03:13;;;;;;;8.70;2.13;;;5.30;99.90;;;;;;5022291;28;20017;-55
2023/11/24 01:05:38;;;;;;;11.45;2.45;;;5.30;99.90;;;;;;5022355;28;20032;-54
2023/11/24 01:08:04;;;;;;;16.15;2.80;;;5.30;99.90;;;;;;5024104;28;20091;-55
2023/11/24 01:10:29;;;;;;;12.25;1.75;;;5.30;99.90;;;;;;5022262;28;20397;-54
2023/11/24 01:12:55;;;;;;;16.70;2.08;;;5.30;99.90;;;;;;5020613;28;20374;-55
2023/11/24 01:15:21;;;;;;;13.73;2.60;;;5.30;99.90;;;;;;5021145;28;20104;-54
2023/11/24 01:17:46;;;;;;;9.70;2.13;;;5.30;99.90;;;;;;5018440;28;20037;-56
2023/11/24 01:20:12;;;;;;;10.93;1.90;;;5.30;99.90;;;;;;5018587;28;20248;-54
2023/11/24 01:22:38;;;;;;;10.73;1.80;;;5.20;99.90;;;;;;5021467;28;20029;-52
2023/11/24 01:25:05;;;;;;;13.35;1.85;;;5.20;99.90;;;;;;5021335;28;20040;-55
2023/11/24 01:27:30;;;;;;;18.08;2.90;;;5.20;99.90;;;;;;5018077;28;20075;-53
2023/11/24 01:29:56;;;;;;;14.38;2.45;;;5.20;99.90;;;;;;5021815;28;20485;-54
2023/11/24 01:32:22;;;;;;;17.33;2.97;;;5.20;99.90;;;;;;5016843;28;20026;-53
2023/11/24 01:34:48;;;;;;;11.93;2.00;;;5.40;99.90;;;;;;5028721;28;20531;-56
2023/11/24 01:37:13;;;;;;;12.75;2.08;;;5.50;99.90;;;;;;5010606;28;20041;-55
2023/11/24 01:39:39;;;;;;;7.45;1.10;;;5.50;99.90;;;;;;5019044;28;20104;-60
2023/11/24 01:45:45;;;;;;;10.95;1.17;;;5.50;99.90;;;;;;4982325;28;20330;-60
2023/11/24 01:48:11;;;;;;;4.75;1.00;;;5.30;99.90;;;;;;4988373;28;20515;-60
2023/11/24 01:50:37;;;;;;;5.88;0.80;;;5.20;99.90;;;;;;4989613;28;20026;-71
2023/11/24 01:53:04;;;;;;;3.88;0.75;;;4.90;99.90;;;;;;4988104;28;20034;-70
2023/11/24 01:55:30;;;;;;;3.53;0.68;;;4.90;99.90;;;;;;4986481;28;20027;-68
2023/11/24 01:57:56;;;;;;;5.30;1.25;;;4.80;99.90;;;;;;4987224;28;20030;-62
2023/11/24 02:00:22;;;;;;;11.63;1.13;;;4.70;99.90;;;;;;4985878;28;20039;-60
2023/11/24 02:02:49;;;;;;;1.58;0.70;;;4.60;99.90;;;;;;4988382;28;20405;-61
2023/11/24 02:05:16;;;;;;;1.95;0.73;;;4.50;99.90;;;;;;4988371;28;20500;-60
2023/11/24 02:07:42;;;;;;;1.30;0.68;;;4.50;99.90;;;;;;4988311;28;20398;-60
2023/11/24 02:10:13;;;;;;;1.92;0.60;;;4.40;99.90;;;;;;4989098;28;20018;-60
2023/11/24 02:12:38;;;;;;;3.42;0.60;;;4.40;99.90;;;;;;4981700;28;20097;-60
2023/11/24 02:15:06;;;;;;;4.13;0.93;;;4.30;99.90;;;;;;4980204;28;20505;-60
2023/11/24 02:17:32;;;;;;;2.13;0.90;;;4.30;99.90;;;;;;4980122;28;20203;-60
2023/11/24 02:19:58;;;;;;;1.95;0.60;;;4.20;99.90;;;;;;4981912;28;20026;-60
2023/11/24 02:22:24;;;;;;;2.28;0.65;;;4.20;99.90;;;;;;4979890;28;20025;-60
2023/11/24 02:24:51;;;;;;;0.85;0.45;;;4.10;99.90;;;;;;4979988;28;20085;-60
2023/11/24 02:27:20;;;;;;;3.13;0.70;;;4.10;99.90;;;;;;4980266;28;20097;-60
2023/11/24 02:29:46;;;;;;;3.67;1.02;;;4.00;99.90;;;;;;4975800;28;20027;-60
2023/11/24 02:32:13;;;;;;;4.03;0.90;;;4.00;99.90;;;;;;4979843;28;20030;-60
2023/11/24 02:34:39;;;;;;;2.53;0.60;;;3.90;99.90;;;;;;4979651;28;20505;-59
2023/11/24 02:37:04;;;;;;;4.18;0.98;;;3.90;99.90;;;;;;4981695;28;20030;-60
2023/11/24 02:39:30;;;;;;;4.68;0.77;;;3.80;99.90;;;;;;4979990;28;20498;-60
2023/11/24 02:41:55;;;;;;;3.55;1.10;;;3.80;99.90;;;;;;4979715;28;20468;-60
2023/11/24 02:44:21;;;;;;;2.42;0.65;;;3.70;99.90;;;;;;4979193;28;20389;-60
2023/11/24 02:46:47;;;;;;;1.45;1.00;;;3.70;99.90;;;;;;4979872;28;20026;-60
2023/11/24 02:49:13;;;;;;;7.03;1.77;;;3.70;99.90;;;;;;4983145;28;20514;-59
2023/11/24 02:51:39;;;;;;;4.65;0.75;;;3.60;99.90;;;;;;4978362;28;20434;-61
2023/11/24 02:54:06;;;;;;;3.67;0.70;;;3.60;99.90;;;;;;4979351;28;20110;-61
2023/11/24 02:56:32;;;;;;;2.95;0.80;;;3.60;99.90;;;;;;4979409;28;20037;-60
2023/11/24 02:58:58;;;;;;;5.38;0.73;;;3.60;99.90;;;;;;4979702;28;20018;-61
2023/11/24 03:01:24;;;;;;;2.10;0.50;;;3.50;99.90;;;;;;4978941;28;20092;-61
2023/11/24 03:03:49;;;;;;;3.63;0.60;;;3.50;99.90;;;;;;4979291;28;20429;-60
2023/11/24 03:06:15;;;;;;;3.75;0.70;;;3.60;99.90;;;;;;4980691;28;20066;-61
2023/11/24 03:08:40;;;;;;;4.03;0.73;;;3.60;99.90;;;;;;4980141;28;20486;-61
2023/11/24 03:11:06;;;;;;;7.93;1.05;;;3.60;99.90;;;;;;4979422;28;20568;-60
2023/11/24 03:13:34;;;;;;;5.15;0.80;;;3.60;99.90;;;;;;4979245;28;20058;-61
2023/11/24 03:16:05;;;;;;;3.85;1.00;;;3.60;99.90;;;;;;4978726;28;20023;-61
2023/11/24 03:18:31;;;;;;;2.53;0.65;;;3.50;99.90;;;;;;4979215;28;20438;-60
2023/11/24 03:20:56;;;;;;;4.07;1.20;;;3.50;99.90;;;;;;4979474;28;20061;-60
2023/11/24 03:23:22;;;;;;;3.95;0.60;;;3.50;99.90;;;;;;4980006;28;20046;-60
2023/11/24 03:25:47;;;;;;;7.25;0.95;;;3.40;99.90;;;;;;4979991;28;20486;-59
2023/11/24 03:28:13;;;;;;;3.55;0.70;;;3.40;99.90;;;;;;4981926;28;20030;-60
2023/11/24 03:30:38;;;;;;;7.57;1.50;;;3.40;99.90;;;;;;4980097;28;20034;-61
2023/11/24 03:33:04;;;;;;;3.38;0.82;;;3.40;99.90;;;;;;4979956;28;20101;-60
2023/11/24 03:35:30;;;;;;;6.72;1.50;;;3.40;99.90;;;;;;4980102;28;20453;-60
2023/11/24 03:37:55;;;;;;;5.40;1.08;;;3.40;99.90;;;;;;4979970;28;20113;-60
2023/11/24 03:40:21;;;;;;;7.03;1.10;;;3.50;99.90;;;;;;4980398;28;20042;-61
2023/11/24 03:42:46;;;;;;;5.85;1.73;;;3.60;99.90;;;;;;4981672;28;20478;-61
2023/11/24 03:45:12;;;;;;;5.88;1.20;;;3.70;99.90;;;;;;4979660;28;20437;-60
2023/11/24 03:47:39;;;;;;;6.78;1.48;;;3.80;99.90;;;;;;4975947;28;20105;-60
2023/11/24 03:50:05;;;;;;;10.65;1.45;;;3.90;99.90;;;;;;4972586;28;20073;-61
2023/11/24 03:52:30;;;;;;;9.40;1.40;;;4.00;99.90;;;;;;4978397;28;20022;-60
2023/11/24 03:54:56;;;;;;;4.55;1.40;;;4.10;99.90;;;;;;4981546;28;20023;-60
2023/11/24 03:57:21;;;;;;;8.82;1.23;;;4.10;99.90;;;;;;4981443;28;20022;-61
2023/11/24 03:59:47;;;;;;;10.50;1.55;;;4.20;99.90;;;;;;4979501;28;20026;-60
2023/11/24 04:02:13;;;;;;;5.68;1.52;;;4.20;99.90;;;;;;4979300;28;20030;-60
2023/11/24 04:04:38;;;;;;;8.52;1.63;;;4.30;99.90;;;;;;4978939;28;20096;-61
2023/11/24 04:07:04;;;;;;;8.77;1.63;;;4.30;99.90;;;;;;4979554;28;20203;-60
2023/11/24 04:09:29;;;;;;;8.68;1.30;;;4.40;99.90;;;;;;4981341;28;20034;-61
2023/11/24 04:11:55;;;;;;;6.72;1.17;;;4.40;99.90;;;;;;4979483;28;20038;-60
2023/11/24 04:14:21;;;;;;;11.60;1.90;;;4.50;99.90;;;;;;4979435;28;20491;-60
2023/11/24 04:16:46;;;;;;;5.65;1.42;;;4.50;99.90;;;;;;4979653;28;20022;-60
2023/11/24 04:19:12;;;;;;;11.15;1.75;;;4.50;99.90;;;;;;4981590;28;20045;-60
2023/11/24 04:21:39;;;;;;;6.65;1.25;;;4.60;99.90;;;;;;4983519;28;20026;-60
2023/11/24 04:24:06;;;;;;;8.43;1.90;;;4.60;99.90;;;;;;4985324;28;20449;-61
2023/11/24 04:26:31;;;;;;;11.13;1.95;;;4.60;99.90;;;;;;4983441;28;20354;-61
2023/11/24 04:28:57;;;;;;;11.20;2.45;;;4.70;99.90;;;;;;4979228;28;20061;-61
2023/11/24 04:31:23;;;;;;;5.00;1.42;;;4.70;99.90;;;;;;4983608;28;20062;-60
2023/11/24 04:33:48;;;;;;;10.75;1.88;;;4.60;99.90;;;;;;4981336;28;20040;-60
2023/11/24 04:36:14;;;;;;;10.57;1.88;;;4.60;99.90;;;;;;4982931;28;20077;-60
2023/11/24 04:38:39;;;;;;;18.55;2.55;;;4.50;99.90;;;;;;4983222;28;20062;-60
2023/11/24 04:41:06;;;;;;;9.43;1.77;;;4.60;99.90;;;;;;4984942;28;20030;-60
2023/11/24 04:43:32;;;;;;;9.75;1.27;;;4.60;99.90;;;;;;4983088;28;20726;-60
2023/11/24 04:45:57;;;;;;;12.05;2.08;;;4.60;99.90;;;;;;4982682;28;20118;-61
2023/11/24 04:48:23;;;;;;;7.85;1.40;;;4.60;99.90;;;;;;4982949;28;20113;-60
2023/11/24 04:50:48;;;;;;;12.15;2.17;;;4.60;99.90;;;;;;4977002;28;20022;-60
2023/11/24 04:53:15;;;;;;;10.10;1.98;;;4.60;99.90;;;;;;4983252;28;20109;-60
2023/11/24 04:55:41;;;;;;;12.10;1.98;;;4.60;99.90;;;;;;4983716;28;20030;-60
2023/11/24 04:58:07;;;;;;;10.00;2.00;;;4.60;99.90;;;;;;4985675;28;20026;-59
2023/11/24 05:00:33;;;;;;;9.73;2.35;;;4.60;99.90;;;;;;4981855;28;20042;-61
2023/11/24 05:02:58;;;;;;;5.32;1.40;;;4.50;99.90;;;;;;4981758;28;20026;-60
2023/11/24 05:05:23;;;;;;;8.95;1.80;;;4.40;99.90;;;;;;4984103;28;20041;-61
2023/11/24 05:07:49;;;;;;;11.52;1.80;;;4.30;99.90;;;;;;4982978;28;20596;-60
2023/11/24 05:10:15;;;;;;;11.32;1.58;;;4.20;99.90;;;;;;4981143;28;20054;-60
2023/11/24 05:12:40;;;;;;;10.52;1.30;;;4.10;99.90;;;;;;4981516;28;20025;-61
2023/11/24 05:15:08;;;;;;;10.07;1.58;;;4.00;99.90;;;;;;4982909;28;20062;-60
2023/11/24 05:17:34;;;;;;;5.05;1.30;;;3.90;99.90;;;;;;4982960;28;20026;-60
2023/11/24 05:20:00;;;;;;;4.00;1.20;;;3.80;99.90;;;;;;4981629;28;20019;-61
2023/11/24 05:22:26;;;;;;;6.18;0.95;;;3.70;99.90;;;;;;4982756;28;20114;-60
2023/11/24 05:24:51;;;;;;;4.18;0.85;;;3.70;99.90;;;;;;4982535;28;20524;-60
2023/11/24 05:27:17;;;;;;;2.00;1.05;;;3.60;99.90;;;;;;4982282;28;20030;-60
2023/11/24 05:29:43;;;;;;;3.85;0.77;;;3.50;99.90;;;;;;4982143;28;20593;-61
2023/11/24 05:32:08;;;;;;;4.43;0.70;;;3.50;99.90;;;;;;4981536;28;20018;-61
2023/11/24 05:34:35;;;;;;;3.78;1.20;;;3.40;99.90;;;;;;4981907;28;20030;-61
2023/11/24 05:37:05;;;;;;;5.05;0.88;;;3.40;99.90;;;;;;4981795;28;20461;-61
2023/11/24 05:39:31;;;;;;;6.20;1.08;;;3.30;99.90;;;;;;4981937;28;20499;-60
2023/11/24 05:41:56;;;;;;;3.47;0.63;;;3.30;99.90;;;;;;4982106;28;20009;-61
2023/11/24 05:44:22;;;;;;;2.80;0.60;;;3.20;99.90;;;;;;4981742;28;20057;-60
2023/11/24 05:46:48;;;;;;;1.77;0.80;;;3.20;99.90;;;;;;4981908;28;20054;-59
2023/11/24 05:49:15;;;;;;;5.10;1.15;;;3.10;99.90;;;;;;4983747;28;20113;-60
2023/11/24 05:51:40;;;;;;;7.90;0.95;;;3.10;99.90;;;;;;4975609;28;20085;-61
2023/11/24 05:54:06;;;;;;;3.58;0.75;;;3.10;99.90;;;;;;4981805;28;20034;-60
2023/11/24 05:56:31;;;;;;;8.50;2.55;;;3.00;99.90;;;;;;4981645;28;20022;-60
2023/11/24 05:58:57;;;;;;;4.70;0.80;;;3.00;99.90;;;;;;4981930;28;20371;-60
2023/11/24 06:01:23;;;;;;;7.15;1.23;;;3.00;99.90;;;;;;4981592;28;20073;-60
2023/11/24 06:03:48;;;;;;;10.43;1.20;;;3.00;99.90;;;;;;4983360;28;20026;-61
2023/11/24 06:06:14;;;;;;;12.18;1.30;;;3.10;99.90;;;;;;4981825;28;20037;-61
2023/11/24 06:08:39;;;;;;;6.78;1.05;;;3.10;99.90;;;;;;4979085;28;20076;-61
2023/11/24 06:11:05;;;;;;;5.15;1.00;;;3.20;99.90;;;;;;4979989;28;20389;-61
2023/11/24 06:13:30;;;;;;;4.22;0.90;;;3.30;99.90;;;;;;4981583;28;20043;-61
2023/11/24 06:15:56;;;;;;;12.93;1.80;;;3.40;99.90;;;;;;4981389;28;20482;-61
2023/11/24 06:18:22;;;;;;;11.23;1.65;;;3.50;99.90;;;;;;4981288;28;20056;-60
2023/11/24 06:20:47;;;;;;;6.43;1.30;;;3.60;99.90;;;;;;4983282;28;20030;-61
2023/11/24 06:23:13;;;;;;;10.45;1.75;;;3.70;99.90;;;;;;4981110;28;20037;-61
2023/11/24 06:25:38;;;;;;;11.10;1.30;;;3.80;99.90;;;;;;4981281;28;20121;-61
2023/11/24 06:28:04;;;;;;;7.68;1.10;;;3.90;99.90;;;;;;4980929;28;20061;-61
2023/11/24 06:30:30;;;;;;;8.15;1.38;;;3.90;99.90;;;;;;4981135;28;20121;-61
2023/11/24 06:32:55;;;;;;;9.77;0.90;;;4.00;99.90;;;;;;4982933;28;20201;-61
2023/11/24 06:35:20;;;;;;;4.78;1.05;;;4.00;99.90;;;;;;4980852;28;20032;-61
2023/11/24 06:37:46;;;;;;;4.50;1.08;;;4.10;99.90;;;;;;4981010;28;22804;-61
2023/11/24 06:40:13;;;;;;;11.18;1.85;;;4.10;99.90;;;;;;4980938;28;20096;-61
2023/11/24 06:42:40;;;;;;;10.82;1.15;;;4.20;99.90;;;;;;4980503;28;20014;-61
2023/11/24 06:45:09;;;;;;;6.50;1.33;;;4.20;99.90;;;;;;4980577;28;20097;-61
2023/11/24 06:47:39;;;;;;;5.75;0.98;;;4.20;99.90;;;;;;4980775;28;20219;-61
2023/11/24 06:50:08;;;;;;;7.57;1.60;;;4.30;99.90;;;;;;4978054;28;20050;-61
2023/11/24 06:52:34;;;;;;;6.63;1.67;;;4.30;99.90;;;;;;4980777;28;20034;-61
2023/11/24 06:55:00;;;;;;;5.15;1.00;;;4.40;99.90;;;;;;4982367;28;20033;-61
2023/11/24 06:57:25;;;;;;;10.15;1.60;;;4.40;99.90;;;;;;4980523;28;20022;-61
2023/11/24 06:59:52;;;;;;;6.13;1.40;;;4.40;99.90;;;;;;4981532;28;23316;-61
2023/11/24 07:02:17;;;;;;;10.00;1.15;;;4.40;99.90;;;;;;4980329;28;20026;-61
2023/11/24 07:04:43;;;;;;;3.50;1.23;;;4.40;99.90;;;;;;4980418;28;20034;-61
2023/11/24 07:07:08;;;;;;;8.68;1.23;;;4.50;99.90;;;;;;4980515;28;20394;-61
2023/11/24 07:09:34;;;;;;;8.45;1.40;;;4.50;99.90;;;;;;4982077;28;20037;-61
2023/11/24 07:11:59;;;;;;;6.03;1.48;;;4.60;99.90;;;;;;4980168;28;20053;-61
2023/11/24 07:14:25;;;;;;;7.57;1.10;;;4.50;99.90;;;;;;4980467;28;20552;-61
2023/11/24 07:16:52;;;;;;;10.38;1.77;;;4.50;99.90;;;;;;4978859;28;20014;-61
2023/11/24 07:19:19;;;;;;;5.75;1.42;;;4.60;99.90;;;;;;4980087;28;20026;-61
2023/11/24 07:21:45;;;;;;;5.10;1.83;;;4.60;99.90;;;;;;4980324;28;20425;-61
2023/11/24 07:24:10;;;;;;;10.57;1.73;;;4.60;99.90;;;;;;4979944;28;20524;-61
2023/11/24 07:26:36;;;;;;;6.78;1.65;;;4.60;99.90;;;;;;4981687;28;20094;-61
2023/11/24 07:29:02;;;;;;;6.63;1.83;;;4.60;99.90;;;;;;4976203;28;20057;-61
2023/11/24 07:31:28;;;;;;;6.20;2.03;;;4.70;99.90;;;;;;4980114;28;20037;-61
2023/11/24 07:33:54;;;;;;;7.90;1.40;;;4.70;99.90;;;;;;4980367;28;20397;-61
2023/11/24 07:36:19;;;;;;;7.70;1.30;;;4.70;99.90;;;;;;4980119;28;20488;-61
2023/11/24 07:38:45;;;;;;;6.43;1.70;;;4.80;99.90;;;;;;4980309;28;20105;-62
2023/11/24 07:41:11;;;;;;;10.13;1.50;;;4.80;99.90;;;;;;4982016;28;20068;-61
2023/11/24 07:43:37;;;;;;;4.57;1.33;;;4.90;99.90;;;;;;4982033;28;20509;-62
2023/11/24 07:46:07;;;;;;;5.65;1.42;;;4.90;99.90;;;;;;4978236;28;20045;-61
2023/11/24 07:48:33;;;;;;;4.35;1.40;;;4.90;99.90;;;;;;4979204;28;20105;-61
2023/11/24 07:50:59;;;;;;;7.25;1.98;;;4.90;99.90;;;;;;4979364;28;20018;-61
2023/11/24 07:53:25;;;;;;;9.55;2.17;;;5.00;99.90;;;;;;4979064;28;20397;-61
2023/11/24 07:55:50;;;;;;;10.65;2.10;;;5.00;99.90;;;;;;4979771;28;20038;-61
2023/11/24 07:58:16;;;;;;;6.95;1.27;;;5.00;99.90;;;;;;4981454;28;20105;-61
2023/11/24 08:00:41;;;;;;;9.75;1.83;;;5.10;99.90;;;;;;4981514;28;20155;-61
2023/11/24 08:03:07;;;;;;;9.60;1.63;;;5.10;99.90;;;;;;4979708;28;20041;-58
2023/11/24 08:05:33;;;;;;;7.85;1.30;;;5.10;99.90;;;;;;4979443;28;20045;-60
2023/11/24 08:08:00;;;;;;;17.35;2.20;;;5.10;99.90;;;;;;4979769;28;20018;-59
2023/11/24 08:10:27;;;;;;;8.15;1.80;;;5.10;99.90;;;;;;4979411;28;20034;-59
2023/11/24 08:12:52;;;;;;;11.50;1.77;;;5.10;99.90;;;;;;4979244;28;20081;-59
2023/11/24 08:15:19;;;;;;;10.18;1.70;;;5.10;99.90;;;;;;4981145;28;20038;-60
2023/11/24 08:17:44;;;;;;;6.63;1.70;;;5.10;99.90;;;;;;4979617;28;20723;-60
2023/11/24 08:20:10;;;;;;;7.85;1.75;;;5.10;99.90;;;;;;4979399;28;20106;-59
2023/11/24 08:22:36;;;;;;;6.82;1.23;;;5.10;99.90;;;;;;4979374;28;20339;-60
2023/11/24 08:25:03;;;;;;;8.25;1.70;;;5.00;99.90;;;;;;4979253;28;20584;-59
2023/11/24 08:27:28;;;;;;;6.25;1.40;;;5.00;99.90;;;;;;4979334;28;20030;-59
2023/11/24 08:29:54;;;;;;;7.60;1.77;;;5.00;99.90;;;;;;4981189;28;20030;-60
2023/11/24 08:32:20;;;;;;;5.38;1.15;;;5.10;99.90;;;;;;4979465;28;20023;-60
2023/11/24 08:34:45;;;;;;;11.90;2.20;;;5.10;99.90;;;;;;4979206;28;20482;-60
2023/11/24 08:37:11;;;;;;;8.80;2.65;;;5.10;99.90;;;;;;4973306;28;20054;-60
2023/11/24 08:39:38;;;;;;;10.20;2.22;;;5.00;99.90;;;;;;4979201;28;20030;-60
2023/11/24 08:42:04;;;;;;;10.55;1.92;;;5.00;99.90;;;;;;4979024;28;20030;-59
2023/11/24 08:44:30;;;;;;;9.60;1.60;;;5.10;99.90;;;;;;4981074;28;20096;-60
2023/11/24 08:46:56;;;;;;;10.23;1.70;;;5.10;99.90;;;;;;4979216;28;20025;-60
2023/11/24 08:49:22;;;;;;;7.03;1.70;;;5.10;99.90;;;;;;4979329;28;20481;-60
2023/11/24 08:51:47;;;;;;;10.38;2.28;;;5.10;99.90;;;;;;4979312;28;20038;-60
2023/11/24 08:54:13;;;;;;;9.45;1.80;;;5.10;99.90;;;;;;4978975;28;20394;-59
2023/11/24 08:56:39;;;;;;;10.10;1.55;;;5.10;99.90;;;;;;4978985;28;20022;-60
2023/11/24 08:59:08;;;;;;;6.00;1.63;;;5.20;99.90;;;;;;4980971;28;20030;-60
2023/11/24 09:01:34;;;;;;;10.63;1.77;;;5.20;99.90;;;;;;4981112;28;20023;-60
2023/11/24 09:03:59;;;;;;;8.43;1.98;;;5.30;99.90;;;;;;4979058;28;20018;-60
2023/11/24 09:06:26;;;;;;;11.20;2.47;;;5.30;99.90;;;;;;4982729;28;20041;-60
2023/11/24 09:08:52;;;;;;;11.52;1.77;;;5.40;99.90;;;;;;4982460;28;20022;-60
2023/11/24 09:11:18;;;;;;;12.43;1.60;;;5.50;99.90;;;;;;4982376;28;20389;-59
2023/11/24 09:13:43;;;;;;;5.93;1.10;;;5.60;99.90;;;;;;4982559;28;20658;-60
2023/11/24 09:16:08;;;;;;;12.55;1.33;;;5.80;99.90;;;;;;4982371;28;20065;-59
2023/11/24 09:18:34;;;;;;;8.27;1.88;;;5.90;99.90;;;;;;4984034;28;20027;-60
2023/11/24 09:21:00;;;;;;;6.10;1.30;;;5.90;99.90;;;;;;4982316;28;20129;-60
2023/11/24 09:23:25;;;;;;;5.60;1.40;;;6.00;99.90;;;;;;4982416;28;20386;-60
2023/11/24 09:25:51;;;;;;;5.75;1.48;;;6.10;99.20;;;;;;4981990;28;20120;-60
2023/11/24 09:28:16;;;;;;;9.40;1.98;;;6.10;99.90;;;;;;4982190;28;20085;-60
2023/11/24 09:30:42;;;;;;;7.03;1.45;;;6.20;99.70;;;;;;4982124;28;20027;-59
2023/11/24 09:33:08;;;;;;;9.45;1.73;;;6.10;99.10;;;;;;4983759;28;20423;-60
2023/11/24 09:35:34;;;;;;;4.95;1.63;;;6.10;98.90;;;;;;4981996;28;20018;-60
2023/11/24 09:38:00;;;;;;;9.57;1.70;;;6.10;98.80;;;;;;4975829;28;20521;-60
2023/11/24 09:40:26;;;;;;;8.18;1.65;;;6.00;97.90;;;;;;4981907;28;20092;-59
2023/11/24 09:42:51;;;;;;;4.95;1.20;;;6.00;98.00;;;;;;4981881;28;20026;-60
2023/11/24 09:45:19;;;;;;;5.75;1.25;;;6.00;96.80;;;;;;4981715;28;20038;-59
2023/11/24 09:47:49;;;;;;;8.45;1.33;;;5.90;97.50;;;;;;4980098;28;20073;-60
2023/11/24 09:50:26;;;;;;;7.32;1.77;;;5.80;98.00;;;;;;4980004;28;20402;-59
2023/11/24 09:52:56;;;;;;;7.15;1.75;;;5.70;97.90;;;;;;4981959;28;20097;-60
2023/11/24 09:55:23;;;;;;;9.05;1.90;;;5.60;97.50;;;;;;4983660;28;20026;-60
2023/11/24 09:57:51;;;;;;;5.22;1.50;;;5.50;97.90;;;;;;4979482;28;20109;-60
2023/11/24 10:00:20;;;;;;;6.35;1.50;;;5.40;98.10;;;;;;4973533;28;20066;-60
2023/11/24 10:02:46;;;;;;;5.00;1.45;;;5.30;98.40;;;;;;4980268;28;20081;-60
2023/11/24 10:05:17;;;;;;;8.50;1.75;;;5.30;98.60;;;;;;4981373;28;20383;-60
2023/11/24 10:07:50;;;;;;;5.55;1.85;;;5.30;98.40;;;;;;4981636;28;20039;-60
2023/11/24 10:10:24;;;;;;;6.88;1.85;;;5.40;98.60;;;;;;4981300;28;20263;-59
2023/11/24 10:13:01;;;;;;;7.18;1.33;;;5.60;98.30;;;;;;4983069;28;20572;-60
2023/11/24 10:15:27;;;;;;;5.75;1.10;;;5.60;98.10;;;;;;4979658;28;20026;-60
2023/11/24 10:17:53;;;;;;;12.57;1.92;;;5.60;98.20;;;;;;4978755;28;20374;-60
2023/11/24 10:20:19;;;;;;;5.32;1.23;;;5.70;97.30;;;;;;4981238;28;20081;-59
2023/11/24 10:22:49;;;;;;;5.10;1.25;;;5.70;97.60;;;;;;4981312;28;20474;-60
2023/11/24 10:25:19;;;;;;;5.95;1.00;;;5.80;97.40;;;;;;4981022;28;20049;-60
2023/11/24 10:27:45;;;;;;;5.18;1.30;;;5.80;97.60;;;;;;4981237;28;20081;-60
2023/11/24 10:30:14;;;;;;;4.40;1.05;;;5.90;97.70;;;;;;4980860;28;20387;-60
2023/11/24 10:32:42;;;;;;;8.77;1.88;;;5.80;96.40;;;;;;4981234;28;20029;-60
2023/11/24 10:35:08;;;;;;;7.30;1.38;;;5.90;96.70;;;;;;4981150;28;20486;-59
2023/11/24 10:37:37;;;;;;;9.45;1.75;;;5.90;95.50;;;;;;4977680;28;20385;-59
2023/11/24 10:40:05;;;;;;;5.57;1.80;;;6.00;96.10;;;;;;4980777;28;20030;-59
2023/11/24 10:42:35;;;;;;;5.55;1.55;;;6.10;96.20;;;;;;4982654;28;20018;-60
2023/11/24 10:45:09;;;;;;;10.32;1.80;;;6.10;95.30;;;;;;4978756;28;20046;-60
2023/11/24 10:47:43;;;;;;;10.73;2.63;;;6.10;95.90;;;;;;4973818;28;20042;-60
2023/11/24 10:50:16;;;;;;;12.40;2.67;;;6.20;95.10;;;;;;4980674;28;20029;-59
2023/11/24 10:53:03;;;;;;;10.75;2.30;;;6.30;95.20;;;;;;4980597;28;20473;-59
2023/11/24 10:55:33;;;;;;;9.73;2.50;;;6.30;95.00;;;;;;4980614;28;20026;-60
2023/11/24 10:58:01;;;;;;;10.35;2.70;;;6.40;94.10;;;;;;4979126;28;20247;-60
2023/11/24 11:00:27;;;;;;;7.10;2.10;;;6.30;94.80;;;;;;4980575;28;20397;-60
2023/11/24 11:02:55;;;;;;;9.02;1.83;;;6.30;93.60;;;;;;4980713;28;20036;-60
2023/11/24 11:05:45;;;;;;;8.38;1.27;;;6.40;94.30;;;;;;4980331;28;20033;-60
2023/11/24 11:08:34;;;;;;;6.18;2.10;;;6.40;94.10;;;;;;4977719;28;20130;-59
2023/11/24 11:11:12;;;;;;;8.25;1.73;;;6.40;93.60;;;;;;4980299;28;20022;-60
2023/11/24 11:13:41;;;;;;;5.25;1.50;;;6.40;93.50;;;;;;4980589;28;20118;-60
2023/11/24 11:16:09;;;;;;;7.90;1.48;;;6.30;92.70;;;;;;4979511;28;20092;-60
2023/11/24 11:18:36;;;;;;;6.00;1.75;;;6.30;92.40;;;;;;4982295;28;20034;-60
2023/11/24 11:21:16;;;;;;;6.40;1.83;;;6.20;92.90;;;;;;4979368;28;20556;-60
2023/11/24 11:23:41;;;;;;;7.30;2.10;;;6.10;92.90;;;;;;4979186;28;20509;-60
2023/11/24 11:26:07;;;;;;;6.50;1.38;;;6.10;92.90;;;;;;4981042;28;20042;-60
2023/11/24 11:28:43;;;;;;;7.05;1.85;;;6.10;92.20;;;;;;4977657;28;20037;-60
2023/11/24 11:31:23;;;;;;;6.78;1.55;;;6.20;92.40;;;;;;4994879;28;20117;-59
2023/11/24 11:33:49;;;;;;;6.70;1.60;;;6.20;92.70;;;;;;4976240;28;20026;-60
2023/11/24 11:36:19;;;;;;;5.90;1.63;;;6.20;92.70;;;;;;4981269;28;20543;-59
2023/11/24 11:38:49;;;;;;;5.68;1.45;;;6.30;92.50;;;;;;4978908;28;20026;-60
2023/11/24 11:41:40;;;;;;;5.65;1.50;;;6.30;92.40;;;;;;4978795;28;20092;-60
2023/11/24 11:44:22;;;;;;;6.20;1.58;;;6.30;91.70;;;;;;4977436;28;20042;-60
2023/11/24 11:47:10;;;;;;;5.65;1.88;;;6.30;91.40;;;;;;4979068;28;20242;-60
2023/11/24 11:49:37;;;;;;;3.95;1.40;;;6.30;91.70;;;;;;4973792;28;20019;-60
2023/11/24 11:52:11;;;;;;;8.15;1.50;;;6.30;91.80;;;;;;4972233;28;20038;-60
2023/11/24 11:54:38;;;;;;;3.83;1.23;;;6.30;91.90;;;;;;4977371;28;20046;-61
2023/11/24 11:57:04;;;;;;;7.53;1.48;;;6.30;91.80;;;;;;4977428;28;20042;-60
2023/11/24 11:59:29;;;;;;;6.60;1.50;;;6.30;92.00;;;;;;4977720;28;20034;-60
2023/11/24 12:01:56;;;;;;;10.73;1.75;;;6.30;92.50;;;;;;4977473;28;20058;-60
2023/11/24 12:04:22;;;;;;;12.77;2.30;;;6.30;92.00;;;;;;4978854;28;20041;-61
2023/11/24 12:06:51;;;;;;;8.50;1.70;;;6.30;92.30;;;;;;4977260;28;20506;-61
2023/11/24 12:09:20;;;;;;;9.15;1.35;;;6.40;91.90;;;;;;4977584;28;20031;-60
2023/11/24 12:11:45;;;;;;;7.93;2.28;;;6.30;91.80;;;;;;4977282;28;20417;-60
2023/11/24 12:14:14;;;;;;;8.18;1.95;;;6.40;91.90;;;;;;4977086;28;20500;-60
2023/11/24 12:16:40;;;;;;;6.10;1.60;;;6.40;91.80;;;;;;4977555;28;20220;-61
2023/11/24 12:19:07;;;;;;;7.78;1.70;;;6.40;91.30;;;;;;4974075;28;20342;-61
2023/11/24 12:21:35;;;;;;;7.10;1.48;;;6.40;91.00;;;;;;4977638;28;20030;-60
2023/11/24 12:24:00;;;;;;;7.95;2.30;;;6.30;91.10;;;;;;4978157;28;20034;-60
2023/11/24 12:26:27;;;;;;;6.97;1.80;;;6.30;91.40;;;;;;4980400;28;20022;-61
2023/11/24 12:28:52;;;;;;;4.32;1.25;;;6.40;90.70;;;;;;4980362;28;20023;-61
2023/11/24 12:31:26;;;;;;;9.90;1.73;;;6.40;90.00;;;;;;4978607;28;20110;-61
2023/11/24 12:33:51;;;;;;;11.90;2.25;;;6.50;90.10;;;;;;4978754;28;20022;-61
2023/11/24 12:36:18;;;;;;;9.35;2.15;;;6.50;90.10;;;;;;4973545;28;20236;-59
2023/11/24 12:38:43;;;;;;;7.85;2.03;;;6.40;88.40;;;;;;4980407;28;20095;-61
2023/11/24 12:41:10;;;;;;;6.43;1.70;;;6.40;88.70;;;;;;4981827;28;20023;-61
2023/11/24 12:43:37;;;;;;;7.05;1.30;;;6.40;88.40;;;;;;4982342;28;20166;-63
2023/11/24 12:46:03;;;;;;;6.45;1.58;;;6.40;88.60;;;;;;4982194;28;20049;-62
2023/11/24 12:48:30;;;;;;;7.25;1.20;;;6.40;87.80;;;;;;4984078;28;20037;-61
2023/11/24 12:50:56;;;;;;;9.13;1.77;;;6.50;88.00;;;;;;4982254;28;20479;-61
2023/11/24 12:53:23;;;;;;;3.10;1.48;;;6.40;88.00;;;;;;4982942;28;20408;-61
2023/11/24 12:55:49;;;;;;;4.57;1.80;;;6.50;88.80;;;;;;4982915;28;20584;-61
2023/11/24 12:58:14;;;;;;;8.25;1.60;;;6.40;87.90;;;;;;4983045;28;20030;-61